Time;durP1;ratioP1;P1;durP2;ratioP2;P2;SDS_P1;SDS_P2;PMS_P1;PMS_P2;Temp;Humidity;BMP_temperature;BMP_pressure;BME280_temperature;BME280_humidity;BME280_pressure;Samples;Min_cycle;Max_cycle;Signal;HPM_P1;HPM_P2
2022/12/23 00:00:20;;;;;;;0.75;0.63;;;;;;;12.14;41.29;98380.81;5962689;23;20025;-88
2022/12/23 00:02:45;;;;;;;1.60;0.50;;;;;;;12.17;41.11;98380.31;6007208;23;20015;-88
2022/12/23 00:05:20;;;;;;;2.28;0.60;;;;;;;12.16;41.05;98383.25;6014133;23;20105;-88
2022/12/23 00:07:46;;;;;;;1.98;0.60;;;;;;;12.13;41.23;98378.38;6057106;23;20066;-88
2022/12/23 00:10:12;;;;;;;1.15;0.55;;;;;;;12.00;41.43;98353.59;6037071;23;20010;-88
2022/12/23 00:15:21;;;;;;;2.05;0.95;;;;;;;11.93;41.33;98347.56;6060327;23;20478;-88
2022/12/23 00:17:47;;;;;;;2.45;0.80;;;;;;;11.80;41.32;98327.31;6037616;23;20003;-88
2022/12/23 00:20:20;;;;;;;1.85;0.80;;;;;;;12.15;41.49;98382.44;6014632;23;20019;-88
2022/12/23 00:25:45;;;;;;;1.88;0.65;;;;;;;12.21;41.35;98380.63;6041038;23;20022;-88
2022/12/23 00:28:17;;;;;;;0.80;0.50;;;;;;;12.20;41.22;98379.81;6019068;23;20452;-88
2022/12/23 00:30:58;;;;;;;1.77;0.70;;;;;;;12.16;41.24;98372.53;6037731;23;20453;-89
2022/12/23 00:33:27;;;;;;;3.63;0.60;;;;;;;12.12;41.44;98366.84;6015843;23;20011;-89
2022/12/23 00:35:53;;;;;;;3.05;0.80;;;;;;;11.99;41.40;98346.59;6061113;23;20011;-89
2022/12/23 00:42:52;;;;;;;1.88;0.63;;;;;;;12.15;41.38;98371.72;6062088;23;20011;-88
2022/12/23 00:43:59;;;;;;;1.17;0.63;;;;;;;11.94;41.24;98338.50;6062155;23;20106;-88
2022/12/23 00:46:24;;;;;;;1.45;0.50;;;;;;;11.86;41.78;98336.22;6013218;23;20042;-88
2022/12/23 00:51:35;;;;;;;1.10;0.60;;;;;;;12.12;41.54;98358.81;6041848;23;20241;-88
2022/12/23 00:54:01;;;;;;;1.02;0.50;;;;;;;12.08;41.36;98347.00;6014245;23;20094;-89
2022/12/23 00:56:27;;;;;;;0.88;0.45;;;;;;;11.94;41.23;98325.13;6014133;23;20007;-89
2022/12/23 00:58:52;;;;;;;1.65;0.70;;;;;;;11.81;41.72;98318.22;6061006;23;20013;-88
2022/12/23 01:06:50;;;;;;;0.93;0.52;;;;;;;12.00;41.29;98336.69;6061925;23;20021;-88
2022/12/23 01:09:16;;;;;;;0.88;0.60;;;;;;;11.83;41.07;98313.44;6062119;23;20007;-88
2022/12/23 01:11:46;;;;;;;1.05;0.65;;;;;;;12.18;41.25;98368.53;6062894;23;19999;-88
2022/12/23 01:14:12;;;;;;;2.90;0.75;;;;;;;12.09;41.28;98347.78;6060816;23;20022;-89
2022/12/23 01:16:38;;;;;;;1.83;0.90;;;;;;;11.91;41.30;98314.91;6062476;23;20003;-88
2022/12/23 01:19:04;;;;;;;1.65;0.70;;;;;;;11.86;41.42;98304.09;6062560;23;20007;-89
2022/12/23 01:21:30;;;;;;;2.97;1.00;;;;;;;11.95;41.40;98325.91;6060524;23;20021;-88
2022/12/23 01:23:56;;;;;;;1.90;0.90;;;;;;;12.08;41.53;98332.81;6036857;23;20007;-88
2022/12/23 01:26:22;;;;;;;1.80;0.70;;;;;;;12.17;41.61;98356.19;6060863;23;20003;-88
2022/12/23 01:28:47;;;;;;;2.20;0.85;;;;;;;11.83;41.46;98297.38;6060814;23;20500;-88
2022/12/23 01:31:13;;;;;;;1.35;0.70;;;;;;;11.91;41.30;98306.06;6062893;23;20009;-88
2022/12/23 01:33:39;;;;;;;1.00;0.60;;;;;;;11.94;41.57;98325.13;6060398;23;20500;-89
2022/12/23 01:36:06;;;;;;;1.38;0.68;;;;;;;12.00;41.18;98326.81;6037039;23;20003;-89
2022/12/23 01:38:32;;;;;;;1.63;0.80;;;;;;;12.07;41.64;98342.69;6061137;23;20011;-89
2022/12/23 01:40:58;;;;;;;1.52;0.80;;;;;;;11.96;41.30;98330.22;6037597;23;20042;-89
2022/12/23 01:43:49;;;;;;;1.40;0.50;;;;;;;12.01;41.51;98333.78;6060109;23;20007;-88
2022/12/23 01:46:15;;;;;;;2.55;0.77;;;;;;;12.03;41.55;98342.38;6061200;23;20086;-89
2022/12/23 01:48:42;;;;;;;1.15;0.70;;;;;;;11.83;41.48;98310.75;6060746;23;20055;-89
2022/12/23 01:51:21;;;;;;;1.25;0.60;;;;;;;11.84;41.58;98317.72;6037105;23;20010;-89
2022/12/23 01:53:49;;;;;;;1.52;0.73;;;;;;;11.95;41.61;98323.25;6015497;23;20015;-89
2022/12/23 01:56:23;;;;;;;2.60;0.77;;;;;;;12.13;41.33;98357.78;6013498;23;20006;-89
2022/12/23 01:58:58;;;;;;;1.63;0.80;;;;;;;11.91;41.29;98314.09;6013819;23;20007;-89
2022/12/23 02:04:10;;;;;;;1.60;0.80;;;;;;;12.06;41.49;98346.44;6040605;23;20062;-89
2022/12/23 02:09:32;;;;;;;1.92;0.70;;;;;;;12.03;41.54;98346.91;6039926;23;20021;-89
2022/12/23 02:12:04;;;;;;;0.75;0.75;;;;;;;11.97;41.61;98329.97;6015213;23;20014;-89
2022/12/23 02:17:47;;;;;;;2.05;0.60;;;;;;;12.11;41.56;98354.53;6042525;23;20022;-89
2022/12/23 02:20:34;;;;;;;1.65;0.60;;;;;;;12.12;41.57;98345.41;6060743;23;20017;-89
2022/12/23 02:23:41;;;;;;;1.02;0.60;;;;;;;12.11;41.81;98349.19;6060574;23;20325;-89
2022/12/23 02:26:25;;;;;;;1.85;0.80;;;;;;;12.11;41.70;98349.19;6018041;23;20093;-89
2022/12/23 02:29:12;;;;;;;1.35;0.70;;;;;;;12.07;41.64;98344.56;6061158;23;20049;-88
2022/12/23 02:31:58;;;;;;;3.15;0.70;;;;;;;11.73;41.22;98294.56;6059605;23;20318;-89
2022/12/23 02:34:33;;;;;;;1.52;0.80;;;;;;;12.09;41.76;98345.94;6013764;23;20046;-89
2022/12/23 02:37:07;;;;;;;1.25;0.55;;;;;;;11.87;41.68;98318.31;6036699;23;20034;-89
2022/12/23 02:39:41;;;;;;;1.88;0.70;;;;;;;11.90;41.55;98315.09;6013239;23;20388;-89
2022/12/23 02:42:44;;;;;;;1.42;0.80;;;;;;;11.79;41.41;98309.63;6014503;23;20018;-89
2022/12/23 02:45:25;;;;;;;1.65;1.10;;;;;;;12.07;41.65;98337.31;6046766;23;20006;-89
2022/12/23 02:47:57;;;;;;;1.30;0.60;;;;;;;11.70;41.61;98283.53;6015388;23;20087;-89
2022/12/23 02:50:25;;;;;;;2.45;0.90;;;;;;;11.77;41.94;98289.53;6015619;23;20090;-89
2022/12/23 02:52:51;;;;;;;0.82;0.55;;;;;;;11.82;41.63;98303.78;6015311;23;20002;-88
2022/12/23 02:55:28;;;;;;;1.20;0.65;;;;;;;11.82;41.86;98303.78;6063676;23;20014;-89
2022/12/23 02:57:53;;;;;;;1.00;0.60;;;;;;;11.88;41.86;98307.31;6015707;23;20009;-89
2022/12/23 03:00:20;;;;;;;1.02;0.55;;;;;;;11.91;41.80;98306.06;6015247;23;20014;-89
2022/12/23 03:02:46;;;;;;;2.08;0.80;;;;;;;11.67;41.74;98284.84;6014860;23;20027;-89
2022/12/23 03:05:41;;;;;;;1.45;0.80;;;;;;;11.93;41.70;98320.81;6038601;23;20030;-89
2022/12/23 03:08:15;;;;;;;0.85;0.50;;;;;;;11.71;41.67;98291.31;6038668;23;20023;-89
2022/12/23 03:10:49;;;;;;;;;;;;;;;12.06;41.63;98334.91;6062689;23;20384;-88
2022/12/23 03:13:26;;;;;;;1.17;0.70;;;;;;;12.12;41.54;98333.91;6038513;23;19916;-89
2022/12/23 03:16:17;;;;;;;1.55;0.80;;;;;;;12.09;41.78;98340.59;6061931;23;20306;-89
2022/12/23 03:18:51;;;;;;;1.08;0.77;;;;;;;12.08;41.54;98338.97;6062419;23;20066;-88
2022/12/23 03:21:23;;;;;;;0.77;0.60;;;;;;;12.10;41.79;98342.19;6062137;23;20325;-89
2022/12/23 03:23:52;;;;;;;1.35;0.80;;;;;;;11.80;41.76;98295.19;6064019;23;20341;-89
2022/12/23 03:26:21;;;;;;;1.23;0.70;;;;;;;12.07;41.63;98342.69;6064263;23;20006;-88
2022/12/23 03:28:58;;;;;;;0.70;0.70;;;;;;;11.86;41.55;98300.63;6015909;23;20085;-89
2022/12/23 03:31:28;;;;;;;1.13;0.70;;;;;;;11.92;41.86;98315.72;6015366;23;20015;-89
2022/12/23 03:33:57;;;;;;;0.73;0.70;;;;;;;11.95;41.87;98320.56;6014686;23;20010;-89
2022/12/23 03:36:31;;;;;;;0.88;0.60;;;;;;;11.86;41.57;98298.75;6014143;23;20349;-89
2022/12/23 03:38:57;;;;;;;1.48;0.90;;;;;;;11.73;41.46;98278.50;6038883;23;20087;-89
2022/12/23 03:41:32;;;;;;;1.02;0.80;;;;;;;11.93;41.59;98309.31;6062009;23;20014;-89
2022/12/23 03:44:03;;;;;;;1.08;0.70;;;;;;;11.84;41.94;98301.66;6063753;23;20171;-89
2022/12/23 03:46:35;;;;;;;1.33;0.80;;;;;;;11.63;41.56;98260.44;6016424;23;20066;-89
2022/12/23 03:49:04;;;;;;;0.93;0.73;;;;;;;11.84;41.64;98296.31;6062400;23;20373;-89
2022/12/23 03:51:35;;;;;;;1.00;0.85;;;;;;;12.03;41.67;98320.94;6014742;23;20011;-89
2022/12/23 03:54:06;;;;;;;1.70;0.90;;;;;;;11.72;41.81;98276.88;6061962;23;20320;-89
2022/12/23 03:56:39;;;;;;;0.63;0.60;;;;;;;11.72;41.69;98260.81;6062507;23;20723;-88
2022/12/23 03:59:12;;;;;;;0.60;0.60;;;;;;;11.90;41.89;98296.38;6038562;23;20090;-89
2022/12/23 04:01:54;;;;;;;2.08;0.85;;;;;;;12.08;41.60;98314.06;6061259;23;20122;-88
2022/12/23 04:04:51;;;;;;;2.00;0.70;;;;;;;12.06;41.79;98311.63;6061413;23;20515;-89
2022/12/23 04:07:26;;;;;;;1.23;0.70;;;;;;;11.90;41.85;98278.47;6061813;23;20477;-89
2022/12/23 04:09:52;;;;;;;1.05;0.73;;;;;;;11.76;42.04;98261.97;6061690;23;20455;-89
2022/12/23 04:12:18;;;;;;;1.35;0.90;;;;;;;11.80;41.73;98256.91;6063185;23;20007;-88
2022/12/23 04:14:50;;;;;;;1.45;1.00;;;;;;;11.82;41.69;98273.53;6061908;23;20032;-89
2022/12/23 04:17:16;;;;;;;1.52;0.80;;;;;;;11.72;41.79;98265.38;6063959;23;20007;-88
2022/12/23 04:19:44;;;;;;;0.85;0.60;;;;;;;11.87;41.67;98283.50;6060956;23;20499;-89
2022/12/23 04:22:10;;;;;;;1.00;0.65;;;;;;;11.88;41.94;98279.75;6015462;23;20086;-89
2022/12/23 04:24:35;;;;;;;1.00;0.88;;;;;;;11.79;41.65;98261.44;6037629;23;20436;-88
2022/12/23 04:27:01;;;;;;;0.75;0.63;;;;;;;11.95;41.93;98285.75;6014393;23;20031;-89
2022/12/23 04:29:27;;;;;;;1.60;0.63;;;;;;;11.93;41.75;98287.88;6037689;23;20301;-89
2022/12/23 04:31:56;;;;;;;1.48;0.90;;;;;;;12.03;41.70;98298.72;6014665;23;20094;-89
2022/12/23 04:34:22;;;;;;;1.23;1.00;;;;;;;11.81;41.66;98263.88;6037479;23;20404;-88
2022/12/23 04:36:47;;;;;;;1.00;0.70;;;;;;;12.00;41.83;98299.22;6035733;23;20003;-88
2022/12/23 04:39:13;;;;;;;1.40;0.85;;;;;;;11.92;41.78;98283.59;6013104;23;20011;-89
2022/12/23 04:41:39;;;;;;;1.20;0.90;;;;;;;11.83;41.53;98261.75;6037153;23;20014;-89
2022/12/23 04:44:05;;;;;;;0.65;0.60;;;;;;;11.74;41.93;98257.91;6014581;23;20283;-88
2022/12/23 04:46:31;;;;;;;1.90;0.93;;;;;;;11.88;41.67;98275.19;6064326;23;20017;-88
2022/12/23 04:48:56;;;;;;;1.30;0.80;;;;;;;11.75;41.98;98271.03;6062590;23;20428;-89
2022/12/23 04:51:22;;;;;;;1.63;0.90;;;;;;;12.06;41.77;98292.88;6038017;23;20061;-88
2022/12/23 04:53:48;;;;;;;1.50;0.80;;;;;;;11.88;41.59;98274.41;6038035;23;20003;-88
2022/12/23 04:56:14;;;;;;;1.02;0.80;;;;;;;11.76;41.76;98245.06;6061764;23;20002;-89
2022/12/23 04:58:39;;;;;;;1.33;1.00;;;;;;;11.89;41.84;98268.00;6063057;23;20490;-89
2022/12/23 05:01:07;;;;;;;1.73;1.10;;;;;;;11.73;41.47;98246.41;6061816;23;20137;-89
2022/12/23 05:03:33;;;;;;;2.35;1.00;;;;;;;11.88;41.65;98269.06;6062638;23;20408;-89
2022/12/23 05:05:59;;;;;;;1.17;0.68;;;;;;;11.96;41.68;98276.69;6062956;23;20006;-89
2022/12/23 05:08:24;;;;;;;1.17;0.85;;;;;;;11.82;41.63;98262.84;6063533;23;20039;-89
2022/12/23 05:10:50;;;;;;;0.90;0.60;;;;;;;12.06;41.78;98295.56;6063163;23;20437;-88
2022/12/23 05:13:16;;;;;;;1.10;0.73;;;;;;;11.76;41.69;98256.59;6063301;23;20105;-89
2022/12/23 05:15:45;;;;;;;1.30;0.75;;;;;;;11.89;41.59;98259.97;6037115;23;20019;-89
2022/12/23 05:18:11;;;;;;;1.17;0.80;;;;;;;11.82;41.73;98263.63;6062907;23;20054;-88
2022/12/23 05:20:36;;;;;;;1.27;0.80;;;;;;;11.90;41.79;98264.25;6061447;23;20457;-89
2022/12/23 05:23:02;;;;;;;1.00;0.80;;;;;;;11.91;41.60;98265.91;6013303;23;20260;-88
2022/12/23 05:25:28;;;;;;;0.98;0.70;;;;;;;11.97;41.76;98267.59;6036372;23;20313;-89
2022/12/23 05:27:54;;;;;;;1.30;0.70;;;;;;;11.95;41.63;98273.22;6061001;23;20019;-89
2022/12/23 05:30:19;;;;;;;1.48;0.95;;;;;;;11.74;41.72;98234.63;6058808;23;20566;-89
2022/12/23 05:32:45;;;;;;;1.30;0.80;;;;;;;11.90;41.66;98256.22;6034459;23;20021;-88
2022/12/23 05:35:11;;;;;;;1.25;0.90;;;;;;;11.86;41.52;98244.41;6034960;23;20060;-88
2022/12/23 05:37:37;;;;;;;0.95;0.88;;;;;;;11.77;41.52;98239.47;6010721;23;20327;-89
2022/12/23 05:40:03;;;;;;;1.00;0.80;;;;;;;11.84;41.75;98236.63;6011618;23;20013;-88
2022/12/23 05:42:29;;;;;;;1.30;0.77;;;;;;;11.77;41.61;98231.44;6034466;23;20015;-89
2022/12/23 05:44:54;;;;;;;1.00;0.85;;;;;;;11.89;41.82;98258.09;6061716;23;20034;-89
2022/12/23 05:47:20;;;;;;;0.57;0.57;;;;;;;11.73;41.70;98225.00;6037608;23;20033;-89
2022/12/23 05:49:46;;;;;;;1.50;0.98;;;;;;;11.80;41.56;98233.63;6014282;23;20023;-89
2022/12/23 05:52:11;;;;;;;1.38;0.75;;;;;;;11.90;41.65;98251.69;6013991;23;20014;-88
2022/12/23 05:54:37;;;;;;;1.58;1.00;;;;;;;11.97;41.64;98256.88;6037978;23;20065;-88
2022/12/23 05:57:03;;;;;;;1.17;0.98;;;;;;;11.86;41.75;98250.56;6061661;23;20344;-89
2022/12/23 05:59:28;;;;;;;0.75;0.75;;;;;;;11.70;41.62;98236.19;6062597;23;20117;-89
2022/12/23 06:01:54;;;;;;;1.23;0.80;;;;;;;11.75;41.69;98238.94;6037651;23;20038;-89
2022/12/23 06:04:20;;;;;;;0.90;0.70;;;;;;;11.86;41.52;98255.13;6038416;23;20006;-89
2022/12/23 06:06:46;;;;;;;1.67;0.85;;;;;;;11.96;41.85;98264.09;6014357;23;20667;-89
2022/12/23 06:09:12;;;;;;;1.42;0.80;;;;;;;11.87;41.62;98246.84;6037788;23;20070;-89
2022/12/23 06:11:37;;;;;;;1.65;0.80;;;;;;;11.88;41.43;98253.00;6061129;23;20038;-89
2022/12/23 06:14:03;;;;;;;1.10;0.73;;;;;;;11.92;41.78;98259.53;6013479;23;20007;-89
2022/12/23 06:16:28;;;;;;;1.88;0.95;;;;;;;11.86;41.85;98244.41;6061302;23;20055;-89
2022/12/23 06:18:55;;;;;;;0.98;0.90;;;;;;;11.75;41.78;98233.56;6061742;23;20066;-89
2022/12/23 06:21:21;;;;;;;1.00;0.90;;;;;;;11.83;41.68;98251.88;6064416;23;20115;-88
2022/12/23 06:23:46;;;;;;;1.42;0.93;;;;;;;11.71;41.58;98227.09;6063842;23;20021;-89
2022/12/23 06:26:12;;;;;;;1.88;0.80;;;;;;;11.90;41.49;98266.94;6063355;23;20030;-89
2022/12/23 06:28:49;;;;;;;0.68;0.68;;;;;;;12.02;41.82;98281.88;6015412;23;20066;-89
2022/12/23 06:31:15;;;;;;;1.38;1.08;;;;;;;11.82;41.75;98257.47;6039577;23;20010;-89
2022/12/23 06:33:41;;;;;;;1.23;0.90;;;;;;;11.78;41.80;98246.47;6015163;23;20344;-88
2022/12/23 06:36:07;;;;;;;0.70;0.60;;;;;;;11.84;41.68;98258.03;6063211;23;20021;-88
2022/12/23 06:38:33;;;;;;;1.30;1.05;;;;;;;11.82;41.80;98250.25;6063092;23;20017;-89
2022/12/23 06:40:59;;;;;;;1.20;0.77;;;;;;;12.03;41.82;98278.13;6064850;23;20138;-88
2022/12/23 06:43:25;;;;;;;0.63;0.60;;;;;;;11.73;41.78;98240.22;6038667;23;20010;-89
2022/12/23 06:45:51;;;;;;;1.20;0.85;;;;;;;11.75;41.74;98238.13;6064325;23;20009;-89
2022/12/23 06:48:16;;;;;;;1.20;0.60;;;;;;;11.86;41.78;98253.25;6064475;23;20436;-89
2022/12/23 06:50:45;;;;;;;1.30;0.95;;;;;;;11.89;41.92;98254.63;6061302;23;20086;-89
2022/12/23 06:53:11;;;;;;;1.27;1.00;;;;;;;11.73;41.43;98241.03;6060884;23;20006;-88
2022/12/23 06:55:36;;;;;;;0.90;0.75;;;;;;;11.87;41.52;98262.91;6062275;23;20078;-88
2022/12/23 06:58:02;;;;;;;1.60;0.75;;;;;;;11.67;41.84;98230.53;6015059;23;20762;-88
2022/12/23 07:00:28;;;;;;;1.50;1.10;;;;;;;11.83;41.63;98249.19;6064410;23;20297;-88
2022/12/23 07:02:54;;;;;;;1.48;1.10;;;;;;;11.85;41.44;98257.00;6037322;23;20023;-88
2022/12/23 07:05:19;;;;;;;0.80;0.80;;;;;;;11.67;41.65;98231.31;6009971;23;20038;-88
2022/12/23 07:07:45;;;;;;;1.00;0.90;;;;;;;11.81;41.92;98256.69;6035096;23;20451;-88
2022/12/23 07:10:11;;;;;;;1.30;0.80;;;;;;;11.94;41.74;98274.25;6035555;23;20441;-88
2022/12/23 07:12:37;;;;;;;1.27;0.80;;;;;;;11.96;41.78;98282.84;5987465;23;20358;-88
2022/12/23 07:15:03;;;;;;;1.15;0.90;;;;;;;11.86;41.92;98261.25;6010448;23;20008;-89
2022/12/23 07:17:28;;;;;;;0.93;0.60;;;;;;;11.95;41.73;98275.06;6034876;23;20017;-89
2022/12/23 07:19:54;;;;;;;1.20;1.00;;;;;;;11.96;41.65;98274.00;6010483;23;20007;-88
2022/12/23 07:22:20;;;;;;;1.25;0.82;;;;;;;11.86;41.50;98257.78;6035378;23;20082;-89
2022/12/23 07:24:46;;;;;;;1.60;0.90;;;;;;;11.95;41.73;98269.72;6010223;23;19999;-88
2022/12/23 07:27:11;;;;;;;0.95;0.70;;;;;;;11.77;41.77;98260.88;6010025;23;20004;-88
2022/12/23 07:29:37;;;;;;;0.85;0.75;;;;;;;11.87;41.74;98257.53;6035339;23;20007;-88
2022/12/23 07:32:03;;;;;;;1.08;0.80;;;;;;;11.93;41.63;98269.94;6035071;23;20374;-88
2022/12/23 07:34:29;;;;;;;1.02;0.77;;;;;;;11.92;41.67;98264.88;6035895;23;20007;-88
2022/12/23 07:36:54;;;;;;;1.10;0.70;;;;;;;11.76;41.75;98229.03;6010330;23;20029;-88
2022/12/23 07:39:20;;;;;;;0.98;0.70;;;;;;;11.77;41.82;98230.66;6009829;23;20268;-89
2022/12/23 07:41:46;;;;;;;0.85;0.60;;;;;;;11.98;41.69;98275.38;6035600;23;20112;-89
2022/12/23 07:44:11;;;;;;;0.60;0.60;;;;;;;11.92;41.41;98264.88;5987109;23;20007;-88
2022/12/23 07:46:38;;;;;;;0.80;0.80;;;;;;;11.72;41.53;98239.41;5985704;23;20007;-89
2022/12/23 07:49:03;;;;;;;0.73;0.70;;;;;;;11.95;41.58;98272.38;6010936;23;20074;-88
2022/12/23 07:51:29;;;;;;;0.88;0.70;;;;;;;11.94;41.72;98260.06;5985723;23;20480;-88
2022/12/23 07:53:55;;;;;;;0.70;0.70;;;;;;;11.76;41.58;98227.19;6010712;23;20011;-88
2022/12/23 07:56:21;;;;;;;1.25;1.00;;;;;;;11.83;41.63;98249.19;6035154;23;20007;-88
2022/12/23 07:58:50;;;;;;;0.88;0.68;;;;;;;11.82;41.94;98244.91;6035440;23;20011;-88
2022/12/23 08:01:16;;;;;;;0.88;0.70;;;;;;;11.93;41.75;98256.56;5973251;23;20366;-89
2022/12/23 08:03:42;;;;;;;1.27;0.70;;;;;;;11.86;41.57;98239.84;6014475;23;20007;-88
2022/12/23 08:06:11;;;;;;;1.10;0.80;;;;;;;11.77;41.56;98234.13;6038083;23;20082;-89
2022/12/23 08:08:43;;;;;;;0.40;0.40;;;;;;;12.04;41.68;98276.25;6061991;23;20007;-89
2022/12/23 08:11:10;;;;;;;0.70;0.68;;;;;;;11.95;41.77;98261.69;6039742;23;20336;-89
2022/12/23 08:13:39;;;;;;;0.63;0.63;;;;;;;11.90;41.96;98249.03;6061936;23;20487;-89
2022/12/23 08:16:05;;;;;;;0.70;0.70;;;;;;;11.70;41.67;98220.13;6038132;23;20009;-89
2022/12/23 08:18:32;;;;;;;0.80;0.70;;;;;;;11.76;41.85;98247.75;6063106;23;20322;-89
2022/12/23 08:20:59;;;;;;;0.70;0.60;;;;;;;11.88;41.84;98247.63;6038072;23;20177;-89
2022/12/23 08:23:25;;;;;;;0.77;0.60;;;;;;;11.93;41.34;98253.09;6062764;23;20011;-88
2022/12/23 08:26:11;;;;;;;1.00;0.85;;;;;;;11.96;41.98;98260.63;6061870;23;20090;-89
2022/12/23 08:28:37;;;;;;;1.20;0.80;;;;;;;11.70;41.80;98222.81;6015691;23;20015;-89
2022/12/23 08:31:14;;;;;;;1.25;0.70;;;;;;;11.88;41.84;98247.63;6063268;23;20042;-89
2022/12/23 08:33:41;;;;;;;0.90;0.60;;;;;;;11.94;41.62;98252.03;6015347;23;20240;-88
2022/12/23 08:36:08;;;;;;;1.23;0.77;;;;;;;12.06;41.58;98276.03;6038826;23;20018;-89
2022/12/23 08:38:34;;;;;;;0.70;0.70;;;;;;;11.81;41.66;98232.59;6061964;23;20003;-89
2022/12/23 08:41:00;;;;;;;0.65;0.65;;;;;;;11.73;41.74;98219.63;6014819;23;20042;-88
2022/12/23 08:43:25;;;;;;;0.90;0.70;;;;;;;11.86;42.04;98234.50;6061430;23;20011;-89
2022/12/23 08:45:51;;;;;;;0.95;0.80;;;;;;;11.78;41.66;98224.22;6015749;23;20440;-89
2022/12/23 08:48:17;;;;;;;0.70;0.70;;;;;;;11.70;41.68;98214.78;6015497;23;20511;-89
2022/12/23 08:50:43;;;;;;;0.60;0.60;;;;;;;11.80;41.87;98230.97;6014776;23;20090;-89
2022/12/23 08:53:10;;;;;;;0.65;0.65;;;;;;;11.79;41.74;98223.19;6011270;23;20137;-88
2022/12/23 08:55:37;;;;;;;1.45;0.80;;;;;;;11.76;41.76;98224.50;6037574;23;20007;-89
2022/12/23 08:58:03;;;;;;;0.77;0.70;;;;;;;11.69;41.42;98229.19;6016516;23;20010;-88
2022/12/23 09:00:29;;;;;;;1.33;0.90;;;;;;;11.71;41.47;98218.25;6022619;23;20033;-89
2022/12/23 09:02:55;;;;;;;1.02;0.93;;;;;;;11.99;41.87;98252.09;6013118;23;20474;-89
2022/12/23 09:05:21;;;;;;;0.88;0.70;;;;;;;11.70;41.79;98213.97;6012617;23;20341;-88
2022/12/23 09:07:47;;;;;;;0.70;0.70;;;;;;;11.87;41.78;98235.34;6013178;23;20017;-88
2022/12/23 09:10:13;;;;;;;2.35;0.82;;;;;;;11.93;41.72;98239.72;6014205;23;20057;-88
2022/12/23 09:12:38;;;;;;;0.98;0.85;;;;;;;11.84;41.73;98223.25;6062889;23;20089;-88
2022/12/23 09:15:05;;;;;;;1.23;0.80;;;;;;;11.88;41.70;98224.34;6061753;23;20007;-88
2022/12/23 09:17:30;;;;;;;0.80;0.70;;;;;;;11.86;41.92;98223.78;6060647;23;20451;-88
2022/12/23 09:19:56;;;;;;;0.88;0.75;;;;;;;11.88;41.69;98218.19;6062916;23;20140;-88
2022/12/23 09:22:24;;;;;;;1.23;0.80;;;;;;;11.76;41.81;98212.97;6014096;23;20467;-89
2022/12/23 09:24:50;;;;;;;0.73;0.73;;;;;;;11.88;41.78;98226.22;6038528;23;20085;-88
2022/12/23 09:27:18;;;;;;;1.20;0.80;;;;;;;11.83;41.72;98214.41;6013798;23;20010;-89
2022/12/23 09:29:44;;;;;;;0.75;0.60;;;;;;;11.90;41.72;98229.47;6013725;23;20045;-88
2022/12/23 09:32:09;;;;;;;0.60;0.60;;;;;;;11.81;41.81;98216.53;6013443;23;20003;-88
2022/12/23 09:34:35;;;;;;;1.05;0.95;;;;;;;11.88;41.70;98220.88;6013608;23;20090;-88
2022/12/23 09:37:01;;;;;;;0.75;0.65;;;;;;;11.86;41.84;98214.97;6013518;23;20011;-88
2022/12/23 09:39:27;;;;;;;0.80;0.80;;;;;;;11.79;41.81;98202.56;6012666;23;20021;-88
2022/12/23 09:42:24;;;;;;;1.30;0.77;;;;;;;12.05;41.87;98231.56;6011412;23;20417;-89
2022/12/23 09:45:10;;;;;;;0.52;0.45;;;;;;;12.02;41.89;98227.50;6057976;23;20092;-88
2022/12/23 09:47:36;;;;;;;0.88;0.70;;;;;;;11.84;41.78;98199.16;6058133;23;20660;-89
2022/12/23 09:50:25;;;;;;;0.98;0.90;;;;;;;11.72;41.67;98175.19;6034695;23;20081;-89
2022/12/23 09:52:56;;;;;;;1.40;0.80;;;;;;;12.06;41.89;98223.28;6026043;23;20011;-89
2022/12/23 09:55:43;;;;;;;0.65;0.65;;;;;;;11.77;41.76;98182.47;6058355;23;20080;-88
2022/12/23 09:58:21;;;;;;;0.98;0.65;;;;;;;11.62;41.70;98156.34;6061101;23;20027;-88
2022/12/23 10:01:06;;;;;;;0.68;0.60;;;;;;;12.03;41.75;98213.06;6013834;23;20025;-89
2022/12/23 10:04:11;;;;;;;0.60;0.60;;;;;;;11.77;41.82;98182.47;5986937;23;20469;-88
2022/12/23 10:06:37;;;;;;;0.95;0.80;;;;;;;11.84;41.61;98205.31;6003179;23;20030;-89
2022/12/23 10:09:04;;;;;;;0.60;0.60;;;;;;;11.83;41.73;98193.00;5962447;23;20019;-89
2022/12/23 10:11:36;;;;;;;1.00;0.90;;;;;;;11.85;41.94;98198.09;5961869;23;20120;-88
2022/12/23 10:14:09;;;;;;;0.60;0.60;;;;;;;11.78;41.63;98178.72;5963331;23;20012;-88
2022/12/23 10:16:38;;;;;;;1.00;0.80;;;;;;;11.73;41.73;98167.97;5963857;23;20019;-89
2022/12/23 10:19:24;;;;;;;0.77;0.63;;;;;;;11.93;41.75;98207.59;5962052;23;20110;-88
2022/12/23 10:21:55;;;;;;;0.70;0.60;;;;;;;11.88;41.93;98191.44;5985420;23;20545;-88
2022/12/23 10:24:22;;;;;;;0.80;0.68;;;;;;;11.75;41.67;98182.72;5963221;23;20437;-88
2022/12/23 10:26:51;;;;;;;0.90;0.80;;;;;;;12.06;41.58;98217.91;5962586;23;20011;-89
2022/12/23 10:29:25;;;;;;;0.80;0.70;;;;;;;11.77;41.93;98177.94;5985481;23;20015;-89
2022/12/23 10:32:17;;;;;;;0.85;0.60;;;;;;;11.70;41.81;98161.25;5986442;23;20007;-88
2022/12/23 10:34:49;;;;;;;1.00;0.82;;;;;;;11.99;42.00;98206.59;5985116;23;20341;-88
2022/12/23 10:37:35;;;;;;;1.30;0.80;;;;;;;12.06;41.76;98204.53;6033828;23;20039;-88
2022/12/23 10:40:07;;;;;;;1.25;0.70;;;;;;;12.05;41.94;98210.94;6008357;23;20038;-88
2022/12/23 10:42:49;;;;;;;0.90;0.80;;;;;;;11.89;41.67;98190.38;6008840;23;20455;-89
2022/12/23 10:45:44;;;;;;;1.27;0.80;;;;;;;11.99;41.77;98219.97;5986349;23;20007;-88
2022/12/23 10:48:15;;;;;;;0.60;0.60;;;;;;;12.01;41.90;98215.19;5987234;23;20011;-88
2022/12/23 10:50:52;;;;;;;1.20;0.80;;;;;;;11.97;41.72;98198.81;6008859;23;20015;-88
2022/12/23 10:53:29;;;;;;;0.75;0.75;;;;;;;12.05;41.80;98204.78;5963132;23;20007;-88
2022/12/23 10:55:55;;;;;;;0.98;0.88;;;;;;;11.88;41.70;98178.84;5985580;23;20107;-88
2022/12/23 10:58:20;;;;;;;0.73;0.70;;;;;;;11.93;41.97;98175.47;5962325;23;20019;-88
2022/12/23 11:00:56;;;;;;;0.85;0.70;;;;;;;11.98;41.82;98189.72;5961993;23;20794;-88
2022/12/23 11:03:34;;;;;;;0.82;0.70;;;;;;;12.07;41.76;98194.63;5962829;23;20011;-88
2022/12/23 11:06:00;;;;;;;0.60;0.60;;;;;;;12.03;41.97;98197.78;5986452;23;20369;-88
2022/12/23 11:08:27;;;;;;;0.60;0.60;;;;;;;11.92;41.79;98177.34;5964387;23;20007;-88
2022/12/23 11:10:54;;;;;;;0.70;0.70;;;;;;;11.63;41.77;98140.03;6010465;23;20460;-89
2022/12/23 11:13:38;;;;;;;0.75;0.60;;;;;;;12.03;41.95;98199.66;6007745;23;20047;-88
2022/12/23 11:16:27;;;;;;;0.80;0.70;;;;;;;11.95;41.90;98179.53;5985432;23;20195;-89
2022/12/23 11:19:01;;;;;;;0.60;0.60;;;;;;;11.57;41.89;98116.16;5963486;23;20022;-88
2022/12/23 11:21:27;;;;;;;0.65;0.60;;;;;;;11.88;41.94;98157.44;5963198;23;20011;-89
2022/12/23 11:24:14;;;;;;;0.60;0.60;;;;;;;12.05;41.90;98180.69;5964475;23;20437;-88
2022/12/23 11:26:40;;;;;;;0.70;0.70;;;;;;;11.79;41.98;98149.03;5987318;23;20012;-88
2022/12/23 11:29:10;;;;;;;0.60;0.50;;;;;;;11.92;42.07;98155.13;5964376;23;20007;-88
2022/12/23 11:31:36;;;;;;;0.68;0.60;;;;;;;11.77;42.18;98131.63;5986658;23;20464;-89
2022/12/23 11:34:11;;;;;;;0.73;0.70;;;;;;;11.70;41.96;98126.47;5964096;23;20348;-89
2022/12/23 11:36:37;;;;;;;0.80;0.70;;;;;;;11.86;41.66;98164.13;6035115;23;20456;-89
2022/12/23 11:39:04;;;;;;;0.70;0.70;;;;;;;11.79;41.71;98143.69;5986296;23;20007;-89
2022/12/23 11:41:46;;;;;;;0.70;0.70;;;;;;;11.76;41.93;98121.97;5986428;23;20206;-88
2022/12/23 11:44:29;;;;;;;0.60;0.60;;;;;;;11.62;41.92;98111.69;5966265;23;20556;-89
2022/12/23 11:46:55;;;;;;;0.60;0.60;;;;;;;11.83;41.96;98150.19;6010411;23;20007;-89
2022/12/23 11:49:29;;;;;;;0.75;0.75;;;;;;;12.05;41.90;98153.91;5963007;23;20018;-89
2022/12/23 11:52:08;;;;;;;;;;;;;;;12.05;41.86;98151.25;6011229;23;20038;-89
2022/12/23 11:54:34;;;;;;;0.55;0.55;;;;;;;11.84;41.79;98121.53;5986500;23;20005;-89
2022/12/23 11:57:02;;;;;;;0.50;0.50;;;;;;;11.86;42.00;98123.97;5963560;23;20018;-88
2022/12/23 11:59:41;;;;;;;0.82;0.75;;;;;;;11.90;42.04;98139.28;5962804;23;20410;-89
2022/12/23 12:02:31;;;;;;;0.57;0.57;;;;;;;11.80;41.76;98112.41;5989447;23;20421;-89
2022/12/23 12:05:01;;;;;;;0.63;0.50;;;;;;;11.77;41.91;98124.41;5986753;23;20015;-89
2022/12/23 12:07:27;;;;;;;0.50;0.45;;;;;;;11.87;42.13;98131.75;5986140;23;20019;-89
2022/12/23 12:09:56;;;;;;;0.73;0.70;;;;;;;11.87;41.96;98139.78;5963473;23;20050;-89
2022/12/23 12:12:22;;;;;;;0.50;0.50;;;;;;;11.70;41.79;98097.03;5986389;23;20042;-89